createdAt,value
2023-01-29T00:02:12.296Z,1.37
2023-01-29T00:04:38.814Z,1.34
2023-01-29T00:07:05.230Z,1.26
2023-01-29T00:09:32.198Z,1.18
2023-01-29T00:11:58.731Z,1.21
2023-01-29T00:14:27.157Z,1.20
2023-01-29T00:16:54.308Z,1.24
2023-01-29T00:19:20.938Z,1.33
2023-01-29T00:21:47.295Z,1.32
2023-01-29T00:24:14.024Z,1.24
2023-01-29T00:26:40.491Z,1.21
2023-01-29T00:29:06.859Z,1.23
2023-01-29T00:31:33.585Z,1.24
2023-01-29T00:34:00.130Z,1.28
2023-01-29T00:36:27.390Z,1.35
2023-01-29T00:39:03.571Z,1.32
2023-01-29T00:41:50.797Z,1.40
2023-01-29T00:44:37.188Z,1.42
2023-01-29T00:47:04.453Z,1.34
2023-01-29T00:49:30.973Z,1.35
2023-01-29T00:52:16.766Z,1.24
2023-01-29T00:54:43.430Z,1.21
2023-01-29T00:57:09.913Z,1.31
2023-01-29T00:59:37.317Z,1.30
2023-01-29T01:02:22.492Z,1.29
2023-01-29T01:04:49.128Z,1.26
2023-01-29T01:07:15.451Z,1.32
2023-01-29T01:10:00.536Z,1.28
2023-01-29T01:12:30.916Z,1.35
2023-01-29T01:14:57.818Z,1.30
2023-01-29T01:17:24.690Z,1.34
2023-01-29T01:19:51.399Z,1.22
2023-01-29T01:22:18.074Z,1.23
2023-01-29T01:24:44.547Z,1.12
2023-01-29T01:27:10.966Z,1.17
2023-01-29T01:29:37.887Z,1.02
2023-01-29T01:32:05.878Z,0.93
2023-01-29T01:34:32.380Z,0.94
2023-01-29T01:36:58.833Z,1.00
2023-01-29T01:39:25.592Z,0.88
2023-01-29T01:41:56.129Z,0.82
2023-01-29T01:44:53.334Z,0.82
2023-01-29T01:47:24.742Z,0.80
2023-01-29T01:49:52.418Z,0.82
2023-01-29T01:52:20.313Z,0.51
2023-01-29T01:54:47.316Z,0.37
2023-01-29T01:57:25.219Z,0.20
2023-01-29T02:00:11.253Z,0.03
2023-01-29T02:03:02.110Z,-0.11
2023-01-29T02:05:50.134Z,-0.09
2023-01-29T02:08:46.106Z,-0.05
2023-01-29T02:11:13.244Z,-0.46
2023-01-29T02:13:40.551Z,-0.38
2023-01-29T02:16:07.438Z,-0.26
2023-01-29T02:18:37.974Z,-0.21
2023-01-29T02:21:14.695Z,-0.32
2023-01-29T02:24:05.370Z,-0.49
2023-01-29T02:26:50.033Z,-0.56
2023-01-29T02:29:42.284Z,-0.62
2023-01-29T02:32:20.704Z,-0.65
2023-01-29T02:35:22.047Z,-0.66
2023-01-29T02:38:00.319Z,-0.68
2023-01-29T02:40:35.773Z,-0.63
2023-01-29T02:43:15.958Z,-0.75
2023-01-29T02:45:56.753Z,-0.75
2023-01-29T02:48:25.932Z,-0.75
2023-01-29T02:51:00.475Z,-0.78
2023-01-29T02:53:39.134Z,-0.73
2023-01-29T02:56:15.152Z,-0.78
2023-01-29T02:58:45.412Z,-0.80
2023-01-29T03:01:30.282Z,-0.81
2023-01-29T03:04:04.130Z,-0.73
2023-01-29T03:06:35.160Z,-0.74
2023-01-29T03:09:05.746Z,-0.77
2023-01-29T03:11:39.741Z,-0.89
2023-01-29T03:14:13.342Z,-0.80
2023-01-29T03:16:51.807Z,-0.94
2023-01-29T03:19:46.733Z,-0.93
2023-01-29T03:22:23.229Z,-0.83
2023-01-29T03:25:17.428Z,-0.92
2023-01-29T03:28:11.702Z,-0.88
2023-01-29T03:31:20.340Z,-0.98
2023-01-29T03:34:00.930Z,-1.07
2023-01-29T03:36:37.801Z,-1.20
2023-01-29T03:39:07.083Z,-1.05
2023-01-29T03:41:38.368Z,-1.16
2023-01-29T03:44:10.876Z,-1.11
2023-01-29T03:46:52.250Z,-1.23
2023-01-29T03:49:30.721Z,-1.30
2023-01-29T03:52:14.354Z,-1.34
2023-01-29T03:54:49.052Z,-1.40
2023-01-29T03:57:45.576Z,-1.38
2023-01-29T04:00:23.482Z,-1.27
2023-01-29T04:03:13.202Z,-1.33
2023-01-29T04:05:47.015Z,-1.33
2023-01-29T04:08:27.618Z,-1.46
2023-01-29T04:10:58.899Z,-1.48
2023-01-29T04:13:27.025Z,-1.38
2023-01-29T04:15:57.964Z,-1.35
2023-01-29T04:18:46.057Z,-1.33
2023-01-29T04:21:14.238Z,-1.34
2023-01-29T04:23:41.217Z,-1.30
2023-01-29T04:26:26.075Z,-1.23
2023-01-29T04:29:20.298Z,-1.24
2023-01-29T04:32:16.014Z,-1.26
2023-01-29T04:35:24.102Z,-1.33
2023-01-29T04:37:59.648Z,-1.30
2023-01-29T04:40:44.120Z,-1.27
2023-01-29T04:43:30.334Z,-1.14
2023-01-29T04:46:06.015Z,-1.21
2023-01-29T04:48:40.381Z,-1.42
2023-01-29T04:51:33.218Z,-1.35
2023-01-29T04:54:05.673Z,-1.31
2023-01-29T04:56:48.158Z,-1.31
2023-01-29T04:59:21.685Z,-1.45
2023-01-29T05:01:48.900Z,-1.43
2023-01-29T05:04:19.576Z,-1.37
2023-01-29T05:06:49.211Z,-1.44
2023-01-29T05:09:17.771Z,-1.36
2023-01-29T05:11:47.607Z,-1.40
2023-01-29T05:14:18.401Z,-1.41
2023-01-29T05:16:49.490Z,-1.37
2023-01-29T05:19:17.227Z,-1.34
2023-01-29T05:21:47.036Z,-1.35
2023-01-29T05:24:19.950Z,-1.35
2023-01-29T05:27:07.883Z,-1.48
2023-01-29T05:29:34.440Z,-1.38
2023-01-29T05:32:00.940Z,-1.42
2023-01-29T05:34:27.422Z,-1.41
2023-01-29T05:36:53.826Z,-1.50
2023-01-29T05:39:20.415Z,-1.34
2023-01-29T05:41:46.821Z,-1.37
2023-01-29T05:44:13.542Z,-1.51
2023-01-29T05:46:40.080Z,-1.42
2023-01-29T05:49:06.541Z,-1.51
2023-01-29T05:51:33.245Z,-1.44
2023-01-29T05:53:59.659Z,-1.40
2023-01-29T05:56:26.096Z,-1.33
2023-01-29T05:58:52.588Z,-1.43
2023-01-29T06:01:21.826Z,-1.42
2023-01-29T06:03:48.628Z,-1.48
2023-01-29T06:06:16.021Z,-1.55
2023-01-29T06:08:42.948Z,-1.56
2023-01-29T06:11:11.421Z,-1.65
2023-01-29T06:13:38.752Z,-1.66
2023-01-29T06:16:09.464Z,-1.53
2023-01-29T06:18:36.921Z,-1.53
2023-01-29T06:21:04.932Z,-1.53
2023-01-29T06:23:32.080Z,-1.53
2023-01-29T06:26:03.249Z,-1.53
2023-01-29T06:28:29.967Z,-1.58
2023-01-29T06:31:20.025Z,-1.61
2023-01-29T06:33:48.740Z,-1.55
2023-01-29T06:36:15.164Z,-1.59
2023-01-29T06:38:41.623Z,-1.61
2023-01-29T06:41:19.507Z,-1.75
2023-01-29T06:43:46.977Z,-1.93
2023-01-29T06:46:13.705Z,-1.87
2023-01-29T06:48:40.162Z,-1.69
2023-01-29T06:51:08.056Z,-1.74
2023-01-29T06:53:36.507Z,-1.74
2023-01-29T06:56:03.485Z,-1.73
2023-01-29T06:58:30.068Z,-1.85
2023-01-29T07:01:06.796Z,-1.91
2023-01-29T07:03:33.780Z,-1.99
2023-01-29T07:06:00.525Z,-1.98
2023-01-29T07:08:28.224Z,-2.07
2023-01-29T07:11:01.413Z,-2.00
2023-01-29T07:13:27.972Z,-1.99
2023-01-29T07:15:54.336Z,-1.97
2023-01-29T07:18:21.102Z,-1.93
2023-01-29T07:20:47.611Z,-1.93
2023-01-29T07:23:15.622Z,-1.84
2023-01-29T07:25:42.107Z,-1.80
2023-01-29T07:28:08.652Z,-1.76
2023-01-29T07:30:35.437Z,-1.73
2023-01-29T07:33:07.526Z,-1.71
2023-01-29T07:35:41.628Z,-1.67
2023-01-29T07:38:10.762Z,-1.65
2023-01-29T07:40:38.988Z,-1.70
2023-01-29T07:43:08.024Z,-1.75
2023-01-29T07:45:36.812Z,-1.69
2023-01-29T07:48:05.050Z,-1.57
2023-01-29T07:50:32.754Z,-1.62
2023-01-29T07:52:59.268Z,-1.68
2023-01-29T07:55:26.063Z,-1.81
2023-01-29T07:58:02.015Z,-1.83
2023-01-29T08:00:30.459Z,-1.94
2023-01-29T08:03:05.812Z,-1.84
2023-01-29T08:05:32.531Z,-1.73
2023-01-29T08:08:06.438Z,-1.89
2023-01-29T08:10:36.498Z,-1.92
2023-01-29T08:13:04.511Z,-1.83
2023-01-29T08:15:32.079Z,-1.78
2023-01-29T08:17:58.965Z,-1.59
2023-01-29T08:20:25.919Z,-1.67
2023-01-29T08:23:03.483Z,-1.62
2023-01-29T08:25:30.579Z,-1.49
2023-01-29T08:27:58.520Z,-1.50
2023-01-29T08:30:26.618Z,-1.53
2023-01-29T08:32:54.330Z,-1.28
2023-01-29T08:35:21.477Z,-1.52
2023-01-29T08:37:59.859Z,-1.47
2023-01-29T08:40:28.574Z,-1.46
2023-01-29T08:43:03.470Z,-1.48
2023-01-29T08:45:34.563Z,-1.43
2023-01-29T08:48:01.392Z,-1.51
2023-01-29T08:50:30.502Z,-1.57
2023-01-29T08:52:59.182Z,-1.49
2023-01-29T08:55:26.289Z,-1.46
2023-01-29T08:57:52.877Z,-1.56
2023-01-29T09:00:19.510Z,-1.52
2023-01-29T09:02:46.070Z,-1.42
2023-01-29T09:05:12.652Z,-1.35
2023-01-29T09:07:39.092Z,-1.34
2023-01-29T09:10:06.019Z,-1.29
2023-01-29T09:12:32.766Z,-1.26
2023-01-29T09:14:59.218Z,-1.29
2023-01-29T09:17:25.780Z,-1.51
2023-01-29T09:19:53.043Z,-1.44
2023-01-29T09:22:20.335Z,-1.45
2023-01-29T09:24:46.908Z,-1.37
2023-01-29T09:27:13.448Z,-1.43
2023-01-29T09:29:40.153Z,-1.35
2023-01-29T09:32:07.158Z,-1.32
2023-01-29T09:34:34.078Z,-1.31
2023-01-29T09:37:00.747Z,-1.33
2023-01-29T09:39:27.136Z,-1.24
2023-01-29T09:42:36.052Z,-1.37
2023-01-29T09:45:27.268Z,-1.35
2023-01-29T09:47:59.682Z,-1.33
2023-01-29T09:50:37.309Z,-1.22
2023-01-29T09:53:25.050Z,-0.91
2023-01-29T09:55:56.243Z,-0.93
2023-01-29T09:58:31.933Z,-0.95
2023-01-29T10:01:18.702Z,-0.94
2023-01-29T10:04:20.546Z,-0.88
2023-01-29T10:07:02.337Z,-0.81
2023-01-29T10:10:26.717Z,-0.63
2023-01-29T10:13:21.084Z,-0.56
2023-01-29T10:15:52.546Z,-0.47
2023-01-29T10:18:37.561Z,-0.28
2023-01-29T10:21:19.591Z,-0.39
2023-01-29T10:23:51.084Z,-0.31
2023-01-29T10:26:23.017Z,-0.18
2023-01-29T10:28:52.075Z,0.76
2023-01-29T10:31:32.723Z,1.78
2023-01-29T10:34:33.175Z,2.56
2023-01-29T10:37:01.637Z,4.09
2023-01-29T10:39:30.916Z,4.20
2023-01-29T10:42:05.569Z,3.57
2023-01-29T10:44:44.283Z,3.32
2023-01-29T10:47:32.252Z,4.53
2023-01-29T10:50:01.564Z,3.95
2023-01-29T10:52:27.920Z,4.49
2023-01-29T10:55:13.305Z,4.25
2023-01-29T10:57:58.467Z,4.27
2023-01-29T11:00:35.879Z,5.05
2023-01-29T11:03:25.198Z,5.49
2023-01-29T11:06:11.494Z,4.42
2023-01-29T11:08:54.810Z,2.88
2023-01-29T11:11:26.438Z,2.65
2023-01-29T11:14:00.004Z,2.84
2023-01-29T11:16:29.986Z,3.00
2023-01-29T11:18:59.390Z,2.72
2023-01-29T11:21:27.830Z,3.39
2023-01-29T11:24:17.024Z,2.52
2023-01-29T11:26:46.051Z,2.49
2023-01-29T11:29:31.031Z,2.08
2023-01-29T11:31:59.475Z,2.10
2023-01-29T11:34:31.004Z,2.04
2023-01-29T11:37:00.142Z,2.12
2023-01-29T11:39:28.518Z,1.95
2023-01-29T11:42:11.805Z,1.85
2023-01-29T11:44:39.339Z,1.63
2023-01-29T11:47:20.989Z,1.76
2023-01-29T11:49:52.475Z,1.61
2023-01-29T11:52:21.716Z,1.99
2023-01-29T11:55:02.283Z,1.97
2023-01-29T11:57:34.220Z,2.00
2023-01-29T12:00:27.988Z,1.86
2023-01-29T12:02:58.430Z,1.99
2023-01-29T12:05:26.466Z,1.88
2023-01-29T12:07:56.077Z,2.03
2023-01-29T12:10:33.983Z,2.27
2023-01-29T12:13:06.216Z,1.90
2023-01-29T12:15:33.134Z,2.55
2023-01-29T12:18:14.047Z,2.76
2023-01-29T12:20:52.873Z,3.06
2023-01-29T12:23:41.460Z,2.77
2023-01-29T12:26:16.016Z,3.12
2023-01-29T12:28:51.740Z,3.63
2023-01-29T12:31:33.198Z,4.31
2023-01-29T12:34:08.203Z,4.01
2023-01-29T12:37:02.478Z,4.09
2023-01-29T12:39:28.990Z,3.51
2023-01-29T12:42:03.339Z,3.77
2023-01-29T12:44:43.470Z,3.68
2023-01-29T12:47:35.599Z,3.80
2023-01-29T12:50:29.573Z,4.46
2023-01-29T12:53:16.079Z,4.20
2023-01-29T12:55:53.784Z,3.51
2023-01-29T12:58:25.303Z,3.78
2023-01-29T13:00:56.439Z,3.83
2023-01-29T13:03:32.684Z,3.41
2023-01-29T13:06:22.349Z,3.67
2023-01-29T13:08:54.764Z,3.78
2023-01-29T13:11:41.301Z,3.97
2023-01-29T13:14:22.683Z,3.60
2023-01-29T13:16:55.693Z,4.11
2023-01-29T13:19:28.405Z,3.95
2023-01-29T13:21:59.300Z,5.23
2023-01-29T13:24:33.367Z,5.14
2023-01-29T13:27:00.908Z,3.81
2023-01-29T13:29:30.880Z,3.91
2023-01-29T13:32:00.270Z,4.43
2023-01-29T13:34:31.743Z,4.54
2023-01-29T13:37:08.801Z,4.84
2023-01-29T13:39:44.290Z,4.61
2023-01-29T13:42:21.455Z,4.17
2023-01-29T13:44:57.567Z,4.02
2023-01-29T13:47:37.833Z,3.25
2023-01-29T13:50:13.479Z,2.74
2023-01-29T13:52:44.493Z,2.37
2023-01-29T13:55:43.409Z,2.28
2023-01-29T13:58:31.847Z,2.31
2023-01-29T14:01:01.058Z,2.65
2023-01-29T14:03:29.992Z,3.01
2023-01-29T14:06:04.918Z,2.52
2023-01-29T14:08:39.935Z,3.06
2023-01-29T14:11:15.768Z,3.39
2023-01-29T14:13:48.646Z,3.87
2023-01-29T14:16:15.282Z,5.03
2023-01-29T14:18:49.577Z,3.25
2023-01-29T14:21:16.260Z,3.31
2023-01-29T14:23:49.950Z,3.06
2023-01-29T14:26:38.224Z,3.06
2023-01-29T14:29:25.624Z,2.83
2023-01-29T14:32:09.244Z,2.39
2023-01-29T14:34:44.315Z,2.18
2023-01-29T14:37:16.801Z,2.14
2023-01-29T14:39:53.005Z,1.99
2023-01-29T14:42:37.241Z,2.01
2023-01-29T14:45:27.132Z,1.83
2023-01-29T14:48:04.020Z,1.82
2023-01-29T14:50:33.421Z,1.68
2023-01-29T14:53:22.138Z,1.63
2023-01-29T14:55:59.549Z,1.67
2023-01-29T14:58:46.787Z,1.84
2023-01-29T15:01:26.863Z,1.66
2023-01-29T15:04:00.415Z,1.99
2023-01-29T15:06:38.839Z,2.04
2023-01-29T15:09:24.851Z,1.92
2023-01-29T15:12:03.694Z,1.75
2023-01-29T15:14:32.920Z,1.84
2023-01-29T15:17:08.877Z,1.82
2023-01-29T15:19:37.751Z,1.90
2023-01-29T15:22:21.833Z,2.12
2023-01-29T15:25:04.662Z,2.23
2023-01-29T15:27:31.450Z,2.39
2023-01-29T15:30:01.165Z,2.14
2023-01-29T15:32:35.132Z,1.68
2023-01-29T15:35:07.576Z,1.55
2023-01-29T15:37:35.845Z,1.57
2023-01-29T15:40:06.792Z,1.55
2023-01-29T15:42:48.466Z,1.67
2023-01-29T15:45:30.998Z,1.62
2023-01-29T15:48:03.521Z,1.58
2023-01-29T15:50:32.592Z,1.47
2023-01-29T15:53:04.134Z,1.72
2023-01-29T15:55:32.032Z,1.68
2023-01-29T15:58:00.122Z,1.50
2023-01-29T16:00:29.717Z,1.44
2023-01-29T16:02:57.709Z,1.31
2023-01-29T16:05:28.752Z,1.41
2023-01-29T16:07:57.452Z,1.39
2023-01-29T16:10:30.399Z,1.30
2023-01-29T16:12:57.703Z,1.28
2023-01-29T16:15:36.001Z,1.28
2023-01-29T16:18:19.143Z,1.27
2023-01-29T16:20:52.719Z,1.36
2023-01-29T16:23:31.749Z,1.20
2023-01-29T16:26:05.004Z,1.29
2023-01-29T16:28:31.519Z,1.29
2023-01-29T16:31:01.254Z,1.25
2023-01-29T16:33:35.174Z,1.27
2023-01-29T16:36:05.719Z,1.16
2023-01-29T16:38:35.146Z,1.15
2023-01-29T16:41:06.770Z,1.14
2023-01-29T16:43:42.047Z,1.00
2023-01-29T16:46:19.463Z,0.96
2023-01-29T16:48:46.197Z,0.89
2023-01-29T16:51:25.003Z,0.61
2023-01-29T16:54:23.434Z,0.64
2023-01-29T16:56:52.903Z,0.55
2023-01-29T16:59:27.276Z,0.45
2023-01-29T17:01:58.230Z,0.43
2023-01-29T17:04:24.762Z,0.32
2023-01-29T17:06:57.588Z,0.27
2023-01-29T17:09:28.308Z,0.16
2023-01-29T17:12:05.090Z,0.18
2023-01-29T17:14:34.251Z,0.14
2023-01-29T17:17:14.593Z,0.03
2023-01-29T17:19:41.155Z,-0.05
2023-01-29T17:22:14.747Z,-0.14
2023-01-29T17:24:42.150Z,-0.11
2023-01-29T17:27:19.323Z,-0.31
2023-01-29T17:29:45.695Z,-0.19
2023-01-29T17:32:12.642Z,-0.43
2023-01-29T17:34:39.577Z,-0.56
2023-01-29T17:37:06.157Z,-0.51
2023-01-29T17:39:32.503Z,-0.62
2023-01-29T17:41:59.304Z,-0.60
2023-01-29T17:44:26.252Z,-0.65
2023-01-29T17:46:52.865Z,-0.57
2023-01-29T17:49:19.383Z,-0.67
2023-01-29T17:51:46.097Z,-0.64
2023-01-29T17:54:12.759Z,-0.80
2023-01-29T17:56:39.354Z,-0.72
2023-01-29T17:59:32.420Z,-0.88
2023-01-29T18:01:59.877Z,-0.98
2023-01-29T18:04:26.637Z,-0.99
2023-01-29T18:06:54.435Z,-0.94
2023-01-29T18:09:21.971Z,-1.00
2023-01-29T18:11:50.830Z,-1.07
2023-01-29T18:14:17.813Z,-1.17
2023-01-29T18:16:45.319Z,-1.16
2023-01-29T18:19:23.611Z,-1.26
2023-01-29T18:21:50.645Z,-1.29
2023-01-29T18:24:17.715Z,-1.27
2023-01-29T18:26:44.790Z,-1.34
2023-01-29T18:29:11.732Z,-1.30
2023-01-29T18:31:38.429Z,-1.28
2023-01-29T18:34:05.285Z,-1.37
2023-01-29T18:36:31.911Z,-1.35
2023-01-29T18:38:58.751Z,-1.33
2023-01-29T18:41:25.290Z,-1.33
2023-01-29T18:43:52.794Z,-1.33
2023-01-29T18:46:19.740Z,-1.33
2023-01-29T18:48:46.413Z,-1.30
2023-01-29T18:51:14.099Z,-1.39
2023-01-29T18:53:41.141Z,-1.50
2023-01-29T18:56:08.386Z,-1.45
2023-01-29T18:58:36.344Z,-1.48
2023-01-29T19:01:10.077Z,-1.58
2023-01-29T19:03:37.491Z,-1.61
2023-01-29T19:06:06.094Z,-1.63
2023-01-29T19:08:33.972Z,-1.75
2023-01-29T19:11:04.217Z,-1.79
2023-01-29T19:13:33.601Z,-1.81
2023-01-29T19:16:01.722Z,-1.77
2023-01-29T19:18:29.112Z,-1.80
2023-01-29T19:20:57.338Z,-1.83
2023-01-29T19:23:24.557Z,-1.76
2023-01-29T19:25:52.584Z,-1.84
2023-01-29T19:28:22.527Z,-1.92
2023-01-29T19:30:51.779Z,-1.93
2023-01-29T19:33:18.410Z,-1.97
2023-01-29T19:35:45.307Z,-2.01
2023-01-29T19:38:12.168Z,-1.96
2023-01-29T19:40:39.286Z,-1.94
2023-01-29T19:43:05.937Z,-1.99
2023-01-29T19:45:49.673Z,-2.01
2023-01-29T19:48:22.093Z,-2.09
2023-01-29T19:50:58.822Z,-2.14
2023-01-29T19:53:29.340Z,-2.17
2023-01-29T19:56:03.035Z,-2.18
2023-01-29T19:58:30.576Z,-2.16
2023-01-29T20:01:01.064Z,-2.17
2023-01-29T20:03:29.958Z,-2.24
2023-01-29T20:06:04.033Z,-2.22
2023-01-29T20:08:35.007Z,-2.17
2023-01-29T20:11:03.520Z,-2.25
2023-01-29T20:13:32.614Z,-2.23
2023-01-29T20:16:05.602Z,-2.19
2023-01-29T20:18:32.745Z,-2.16
2023-01-29T20:21:00.040Z,-2.17
2023-01-29T20:23:37.202Z,-2.27
2023-01-29T20:26:09.940Z,-2.31
2023-01-29T20:28:37.827Z,-2.36
2023-01-29T20:31:06.592Z,-2.38
2023-01-29T20:33:38.169Z,-2.45
2023-01-29T20:36:08.595Z,-2.42
2023-01-29T20:38:38.266Z,-2.52
2023-01-29T20:41:20.334Z,-2.57
2023-01-29T20:43:49.834Z,-2.54
2023-01-29T20:46:18.115Z,-2.58
2023-01-29T20:48:45.387Z,-2.48
2023-01-29T20:51:18.055Z,-2.46
2023-01-29T20:53:46.894Z,-2.48
2023-01-29T20:56:16.595Z,-2.55
2023-01-29T20:58:44.074Z,-2.53
2023-01-29T21:01:12.705Z,-2.64
2023-01-29T21:03:40.236Z,-2.64
2023-01-29T21:06:11.524Z,-2.64
2023-01-29T21:08:38.967Z,-2.63
2023-01-29T21:11:07.783Z,-2.60
2023-01-29T21:13:34.531Z,-2.61
2023-01-29T21:16:02.246Z,-2.69
2023-01-29T21:18:29.491Z,-2.73
2023-01-29T21:20:56.324Z,-2.68
2023-01-29T21:23:22.842Z,-2.70
2023-01-29T21:25:49.595Z,-2.69
2023-01-29T21:28:16.309Z,-2.74
2023-01-29T21:30:42.885Z,-2.75
2023-01-29T21:33:09.408Z,-2.82
2023-01-29T21:35:37.716Z,-2.79
2023-01-29T21:38:04.514Z,-2.77
2023-01-29T21:40:31.530Z,-2.86
2023-01-29T21:43:13.385Z,-2.79
2023-01-29T21:45:41.037Z,-2.79
2023-01-29T21:48:08.954Z,-2.79
2023-01-29T21:50:36.044Z,-2.59
2023-01-29T21:53:03.191Z,-2.64
2023-01-29T21:55:29.850Z,-2.78
2023-01-29T21:57:56.597Z,-2.80
2023-01-29T22:00:23.795Z,-2.83
2023-01-29T22:02:51.169Z,-2.78
2023-01-29T22:05:20.011Z,-2.88
2023-01-29T22:07:48.459Z,-2.91
2023-01-29T22:10:19.903Z,-2.92
2023-01-29T22:12:47.384Z,-2.87
2023-01-29T22:15:15.139Z,-2.85
2023-01-29T22:17:42.158Z,-2.92
2023-01-29T22:20:13.589Z,-2.90
2023-01-29T22:22:40.472Z,-2.96
2023-01-29T22:25:07.557Z,-2.87
2023-01-29T22:27:34.382Z,-2.86
2023-01-29T22:30:00.971Z,-2.97
2023-01-29T22:32:28.502Z,-3.02
2023-01-29T22:34:55.038Z,-3.00
2023-01-29T22:37:21.445Z,-3.04
2023-01-29T22:39:47.872Z,-2.93
2023-01-29T22:42:14.462Z,-2.97
2023-01-29T22:44:41.294Z,-3.03
2023-01-29T22:47:07.765Z,-3.02
2023-01-29T22:49:34.142Z,-3.01
2023-01-29T22:52:12.801Z,-2.93
2023-01-29T22:54:41.035Z,-2.97
2023-01-29T22:57:10.012Z,-3.05
2023-01-29T22:59:36.757Z,-3.03
2023-01-29T23:02:03.211Z,-3.02
2023-01-29T23:04:29.672Z,-3.04
2023-01-29T23:06:56.139Z,-3.01
2023-01-29T23:09:22.808Z,-3.11
2023-01-29T23:11:49.290Z,-3.14
2023-01-29T23:14:15.921Z,-3.19
2023-01-29T23:16:42.314Z,-3.20
2023-01-29T23:19:10.977Z,-3.18
2023-01-29T23:21:37.793Z,-3.13
2023-01-29T23:24:05.835Z,-3.13
2023-01-29T23:26:50.937Z,-3.19
2023-01-29T23:29:17.343Z,-3.13
2023-01-29T23:31:44.301Z,-3.08
2023-01-29T23:34:10.847Z,-3.02
2023-01-29T23:36:37.166Z,-3.10
2023-01-29T23:39:03.978Z,-3.16
2023-01-29T23:41:30.548Z,-3.18
2023-01-29T23:43:56.915Z,-3.13
2023-01-29T23:46:23.602Z,-3.11
2023-01-29T23:48:50.073Z,-3.15
2023-01-29T23:51:16.721Z,-3.22
2023-01-29T23:53:43.193Z,-3.23
2023-01-29T23:56:10.747Z,-3.26
2023-01-29T23:58:37.304Z,-3.24
